Time;durP1;ratioP1;P1;durP2;ratioP2;P2;SDS_P1;SDS_P2;PMS_P1;PMS_P2;Temp;Humidity;BMP_temperature;BMP_pressure;BME280_temperature;BME280_humidity;BME280_pressure;Samples;Min_cycle;Max_cycle;Signal;HPM_P1;HPM_P2
2022/03/19 00:00:06;;;;;;;99.25;45.40;;;;;;;0.09;46.06;96967.78;4924715;29;20084;-74
2022/03/19 00:02:31;;;;;;;96.65;50.72;;;;;;;0.06;47.25;96968.03;4925702;29;20044;-75
2022/03/19 00:04:57;;;;;;;110.40;51.50;;;;;;;0.08;47.86;96967.91;4925810;29;20027;-75
2022/03/19 00:07:22;;;;;;;131.15;59.22;;;;;;;-0.04;48.09;96960.19;4926172;29;20419;-74
2022/03/19 00:09:47;;;;;;;95.75;46.30;;;;;;;-0.05;47.13;96968.00;4924122;29;20484;-75
2022/03/19 00:12:14;;;;;;;178.20;89.30;;;;;;;0.01;47.93;96961.63;4926428;29;20043;-75
2022/03/19 00:14:42;;;;;;;186.13;91.38;;;;;;;-0.05;47.70;96965.44;4908583;29;20035;-75
2022/03/19 00:17:10;;;;;;;192.80;97.13;;;;;;;-0.11;48.14;96965.91;4924535;29;20040;-75
2022/03/19 00:19:39;;;;;;;185.73;90.85;;;;;;;-0.18;48.36;96957.84;4924430;29;20163;-76
2022/03/19 00:22:05;;;;;;;142.65;66.95;;;;;;;-0.10;47.36;96953.00;4923992;29;20044;-76
2022/03/19 00:24:30;;;;;;;92.10;44.30;;;;;;;-0.16;48.16;96950.91;4923824;29;20062;-76
2022/03/19 00:26:56;;;;;;;73.97;36.15;;;;;;;-0.20;47.14;96954.59;4923264;29;20119;-75
2022/03/19 00:29:21;;;;;;;73.15;36.25;;;;;;;-0.27;48.06;96955.97;4924342;29;20047;-75
2022/03/19 00:31:47;;;;;;;56.20;29.50;;;;;;;-0.27;48.16;96961.09;4925656;29;20103;-75
2022/03/19 00:34:13;;;;;;;52.47;27.30;;;;;;;-0.30;48.05;96958.75;4907842;29;20409;-75
2022/03/19 00:36:38;;;;;;;57.20;27.15;;;;;;;-0.34;48.02;96952.22;4909339;29;20123;-76
2022/03/19 00:39:04;;;;;;;56.65;27.67;;;;;;;-0.38;48.24;96948.25;4895321;29;20531;-75
2022/03/19 00:41:29;;;;;;;111.75;47.92;;;;;;;-0.42;48.31;96946.88;4925602;29;20036;-75
2022/03/19 00:43:55;;;;;;;98.82;40.78;;;;;;;-0.44;47.89;96951.28;4927671;29;20043;-75
2022/03/19 00:46:20;;;;;;;77.10;34.10;;;;;;;-0.48;47.47;96960.09;4925634;29;20472;-75
2022/03/19 00:49:05;;;;;;;59.90;30.13;;;;;;;-0.46;47.87;96953.13;4924350;29;20079;-77
2022/03/19 00:51:32;;;;;;;54.85;28.05;;;;;;;-0.44;47.62;96953.84;4923346;29;20040;-75
2022/03/19 00:53:57;;;;;;;50.17;26.65;;;;;;;-0.42;48.38;96959.66;4925212;29;20044;-75
2022/03/19 00:56:23;;;;;;;49.25;25.77;;;;;;;-0.40;47.64;96957.78;4925228;29;20027;-75
2022/03/19 00:58:48;;;;;;;52.60;27.48;;;;;;;-0.49;48.29;96963.56;4926040;29;20036;-76
2022/03/19 01:01:14;;;;;;;47.20;25.42;;;;;;;-0.57;48.43;96960.75;4923229;29;20032;-75
2022/03/19 01:03:39;;;;;;;69.60;29.05;;;;;;;-0.65;48.99;96964.69;4923106;29;20028;-76
2022/03/19 01:06:04;;;;;;;72.20;33.15;;;;;;;-0.71;49.30;96960.00;4938950;29;20405;-76
2022/03/19 01:08:30;;;;;;;84.40;36.85;;;;;;;-0.67;48.82;96958.84;4925010;29;20031;-76
2022/03/19 01:11:11;;;;;;;80.47;35.53;;;;;;;-0.79;49.53;96957.19;4923910;29;20128;-77
2022/03/19 01:13:36;;;;;;;77.85;37.25;;;;;;;-0.75;49.16;96958.59;4922660;29;20038;-76
2022/03/19 01:16:02;;;;;;;81.50;36.55;;;;;;;-0.81;50.00;96959.03;4924740;29;20489;-76
2022/03/19 01:18:29;;;;;;;77.88;34.05;;;;;;;-0.80;49.35;96954.75;4924727;29;20072;-76
2022/03/19 01:20:54;;;;;;;57.92;31.25;;;;;;;-0.86;49.31;96950.84;4923089;29;20398;-76
2022/03/19 01:23:19;;;;;;;52.28;28.13;;;;;;;-0.82;48.77;96954.81;4923873;29;20038;-76
2022/03/19 01:25:45;;;;;;;61.17;30.10;;;;;;;-0.80;49.31;96955.56;4907473;29;20040;-76
2022/03/19 01:28:10;;;;;;;58.88;28.90;;;;;;;-0.81;48.58;96951.38;4922847;29;20043;-76
2022/03/19 01:30:36;;;;;;;61.63;29.27;;;;;;;-0.78;48.83;96943.47;4923043;29;20035;-75
2022/03/19 01:33:01;;;;;;;61.95;27.85;;;;;;;-0.72;48.58;96937.94;4923696;29;20036;-76
2022/03/19 01:35:27;;;;;;;72.88;28.83;;;;;;;-0.77;48.90;96941.75;4922726;29;20091;-75
2022/03/19 01:37:52;;;;;;;61.75;30.00;;;;;;;-0.80;50.17;96941.97;4923093;29;20055;-75
2022/03/19 01:40:18;;;;;;;61.67;28.27;;;;;;;-0.76;50.02;96941.63;4938518;29;20028;-76
2022/03/19 01:42:45;;;;;;;85.88;36.45;;;;;;;-0.76;50.28;96936.53;4923158;29;20067;-76
2022/03/19 01:45:16;;;;;;;102.65;41.92;;;;;;;-0.75;50.77;96938.16;4923742;29;20036;-75
2022/03/19 01:47:42;;;;;;;103.32;46.83;;;;;;;-0.71;50.30;96942.09;4923157;29;20043;-75
2022/03/19 01:50:08;;;;;;;104.00;49.33;;;;;;;-0.76;50.58;96933.97;4922998;29;20039;-75
2022/03/19 01:52:33;;;;;;;97.00;44.80;;;;;;;-0.79;51.21;96946.97;4914972;29;20032;-75
2022/03/19 01:54:59;;;;;;;143.13;59.45;;;;;;;-0.85;51.10;96937.16;4922373;29;20114;-75
2022/03/19 01:57:26;;;;;;;123.68;54.85;;;;;;;-0.83;51.18;96940.41;4921946;29;20487;-75
2022/03/19 01:59:53;;;;;;;114.88;50.88;;;;;;;-0.85;51.26;96926.94;4924050;29;20127;-75
2022/03/19 02:02:19;;;;;;;110.40;45.00;;;;;;;-0.86;50.43;96930.44;4939332;29;20094;-77
2022/03/19 02:04:44;;;;;;;105.40;49.72;;;;;;;-0.86;50.55;96927.88;4939240;29;20039;-76
2022/03/19 02:07:11;;;;;;;120.32;56.00;;;;;;;-0.90;50.36;96931.56;4938106;29;20035;-77
2022/03/19 02:09:37;;;;;;;105.15;56.28;;;;;;;-0.92;49.91;96923.22;4925756;29;20039;-76
2022/03/19 02:12:02;;;;;;;112.78;60.67;;;;;;;-0.89;49.30;96920.44;4924074;29;20040;-76
2022/03/19 02:14:28;;;;;;;128.18;74.00;;;;;;;-0.92;49.46;96920.66;4922030;29;20439;-76
2022/03/19 02:16:54;;;;;;;138.15;69.68;;;;;;;-0.99;49.52;96924.56;4922109;29;20040;-77
2022/03/19 02:19:19;;;;;;;53.72;26.52;;;;;;;-0.96;47.90;96921.81;4922664;29;20114;-76
2022/03/19 02:21:54;;;;;;;43.30;23.15;;;;;;;-1.01;48.24;96913.63;4922776;29;20518;-76
2022/03/19 02:27:04;;;;;;;33.40;17.25;;;;;;;-1.13;48.88;96915.34;4924964;29;20070;-76
2022/03/19 02:29:30;;;;;;;34.83;17.85;;;;;;;-1.22;49.11;96918.53;4923836;29;20511;-76
2022/03/19 02:31:57;;;;;;;32.95;20.00;;;;;;;-1.27;49.50;96911.19;4922436;29;20028;-76
2022/03/19 02:34:22;;;;;;;40.83;20.85;;;;;;;-1.15;49.99;96921.44;4923376;29;20401;-75
2022/03/19 02:36:48;;;;;;;29.63;16.83;;;;;;;-1.15;49.17;96924.00;4906761;29;20047;-76
2022/03/19 02:39:33;;;;;;;37.33;18.27;;;;;;;-1.15;48.97;96921.44;4924064;29;20492;-76
2022/03/19 02:42:05;;;;;;;37.80;18.02;;;;;;;-1.22;49.41;96914.22;4936706;29;20564;-76
2022/03/19 02:44:30;;;;;;;33.63;17.33;;;;;;;-1.19;49.56;96927.69;4922593;29;20050;-76
2022/03/19 02:47:01;;;;;;;38.88;18.60;;;;;;;-1.17;49.42;96928.41;4905758;29;20028;-76
2022/03/19 02:49:26;;;;;;;40.28;18.55;;;;;;;-1.23;49.90;96933.03;4937215;29;20123;-75
2022/03/19 02:51:53;;;;;;;35.83;17.85;;;;;;;-1.25;49.81;96929.78;4921868;29;20127;-75
2022/03/19 02:54:23;;;;;;;35.95;18.85;;;;;;;-1.28;50.25;96934.28;4921360;29;20042;-76
2022/03/19 02:56:48;;;;;;;39.00;18.80;;;;;;;-1.27;49.77;96939.28;4890651;29;20071;-76
2022/03/19 02:59:20;;;;;;;37.15;19.48;;;;;;;-1.27;50.49;96936.72;4937671;29;20068;-76
2022/03/19 03:01:47;;;;;;;39.40;19.00;;;;;;;-1.32;51.23;96937.94;4921473;29;20062;-76
2022/03/19 03:04:13;;;;;;;38.20;18.90;;;;;;;-1.31;50.83;96932.72;4905910;29;20108;-76
2022/03/19 03:06:40;;;;;;;43.03;18.60;;;;;;;-1.33;50.92;96941.41;4906204;29;20050;-76
2022/03/19 03:09:06;;;;;;;51.10;22.83;;;;;;;-1.40;51.63;96941.03;4906550;29;20040;-76
2022/03/19 03:11:31;;;;;;;64.60;23.50;;;;;;;-1.47;52.25;96944.09;4921728;29;20032;-76
2022/03/19 03:13:57;;;;;;;65.65;25.27;;;;;;;-1.40;52.05;96933.38;4904736;29;20520;-76
2022/03/19 03:16:23;;;;;;;60.38;27.02;;;;;;;-1.53;52.42;96935.94;4921529;29;20023;-76
2022/03/19 03:18:49;;;;;;;74.03;30.30;;;;;;;-1.53;52.56;96935.13;4906151;29;20040;-75
2022/03/19 03:21:14;;;;;;;84.75;34.63;;;;;;;-1.50;52.19;96924.72;4922644;29;20522;-75
2022/03/19 03:23:40;;;;;;;89.70;38.00;;;;;;;-1.51;52.44;96928.19;4920969;29;20435;-75
2022/03/19 03:26:05;;;;;;;105.68;45.25;;;;;;;-1.51;52.44;96933.28;4920477;29;20048;-75
2022/03/19 03:28:31;;;;;;;114.68;46.47;;;;;;;-1.58;52.70;96932.09;4922561;29;20052;-76
2022/03/19 03:30:56;;;;;;;117.82;48.80;;;;;;;-1.51;52.65;96928.19;4922891;29;20505;-75
2022/03/19 03:33:22;;;;;;;118.15;49.10;;;;;;;-1.56;52.66;96931.06;4921554;29;20035;-75
2022/03/19 03:35:48;;;;;;;143.63;56.97;;;;;;;-1.59;53.03;96930.47;4906193;29;20040;-75
2022/03/19 03:38:14;;;;;;;175.27;66.07;;;;;;;-1.59;52.97;96925.38;4929588;29;20039;-75
2022/03/19 03:40:41;;;;;;;156.07;60.05;;;;;;;-1.59;52.81;96926.19;4923368;29;20036;-75
2022/03/19 03:43:07;;;;;;;118.85;50.05;;;;;;;-1.61;52.80;96932.31;4921320;29;20032;-75
2022/03/19 03:45:32;;;;;;;137.95;58.78;;;;;;;-1.61;52.89;96924.66;4936935;29;20103;-75
2022/03/19 03:47:58;;;;;;;125.60;60.83;;;;;;;-1.61;53.30;96927.22;4920846;29;20031;-75
2022/03/19 03:50:23;;;;;;;112.38;52.97;;;;;;;-1.60;53.06;96929.66;4920975;29;20543;-75
2022/03/19 03:52:49;;;;;;;109.45;51.03;;;;;;;-1.59;53.39;96922.81;4922774;29;20036;-75
2022/03/19 03:55:14;;;;;;;108.40;51.92;;;;;;;-1.60;52.97;96924.56;4925882;28;20397;-75
2022/03/19 03:57:40;;;;;;;121.78;53.22;;;;;;;-1.58;53.46;96932.09;4920806;29;20043;-75
2022/03/19 04:00:08;;;;;;;139.10;64.38;;;;;;;-1.56;52.79;96931.06;4921271;29;20484;-75
2022/03/19 04:02:34;;;;;;;149.75;65.32;;;;;;;-1.54;52.76;96931.78;4921172;29;20036;-75
2022/03/19 04:04:59;;;;;;;160.77;78.97;;;;;;;-1.57;53.62;96928.63;4922113;29;20520;-75
2022/03/19 04:07:27;;;;;;;216.90;103.45;;;;;;;-1.60;53.67;96928.84;4905555;29;20039;-75
2022/03/19 04:09:55;;;;;;;215.93;102.90;;;;;;;-1.61;53.65;96932.31;4935691;29;20048;-75
2022/03/19 04:12:22;;;;;;;211.05;106.57;;;;;;;-1.64;53.62;96930.75;4936703;29;20070;-75
2022/03/19 04:14:48;;;;;;;204.45;104.25;;;;;;;-1.58;53.27;96937.19;4921415;29;20036;-75
2022/03/19 04:17:14;;;;;;;196.15;97.68;;;;;;;-1.65;53.65;96925.75;4922735;29;20039;-76
2022/03/19 04:19:39;;;;;;;170.32;89.22;;;;;;;-1.61;53.71;96932.31;4920479;29;20039;-75
2022/03/19 04:22:05;;;;;;;179.38;87.10;;;;;;;-1.72;54.36;96937.31;4921157;29;20488;-75
2022/03/19 04:24:30;;;;;;;161.35;81.57;;;;;;;-1.64;53.55;96927.41;4921805;29;20096;-75
2022/03/19 04:26:57;;;;;;;168.68;82.15;;;;;;;-1.64;54.03;96942.69;4936892;29;20054;-75
2022/03/19 04:29:23;;;;;;;146.98;78.95;;;;;;;-1.77;53.74;96941.91;4890063;29;20084;-75
2022/03/19 04:31:48;;;;;;;147.23;75.00;;;;;;;-1.75;54.14;96940.06;4921923;29;20040;-76
2022/03/19 04:34:13;;;;;;;134.32;66.55;;;;;;;-1.71;53.70;96938.94;4920989;29;20036;-75
2022/03/19 04:36:39;;;;;;;145.10;70.90;;;;;;;-1.72;53.89;96939.88;4915479;29;20032;-75
2022/03/19 04:39:05;;;;;;;138.18;71.05;;;;;;;-1.69;53.61;96944.75;4924946;29;20047;-76
2022/03/19 04:41:31;;;;;;;155.95;73.60;;;;;;;-1.66;53.36;96944.53;4925414;29;20028;-75
2022/03/19 04:43:57;;;;;;;142.77;74.35;;;;;;;-1.59;54.08;96938.13;4924609;29;20070;-75
2022/03/19 04:46:22;;;;;;;171.00;79.55;;;;;;;-1.52;53.59;96941.88;4924712;29;20040;-75
2022/03/19 04:48:48;;;;;;;167.43;85.43;;;;;;;-1.47;53.62;96939.00;4924427;29;20044;-76
2022/03/19 04:51:14;;;;;;;182.18;85.53;;;;;;;-1.32;53.14;96933.66;4924733;29;20087;-75
2022/03/19 04:53:40;;;;;;;166.00;79.47;;;;;;;-1.16;52.72;96947.91;4924459;29;20040;-76
2022/03/19 04:56:06;;;;;;;133.82;62.35;;;;;;;-0.89;51.64;96938.31;4923659;29;20043;-75
2022/03/19 04:58:34;;;;;;;124.15;63.67;;;;;;;-0.65;50.98;96944.25;4925272;29;20040;-76
2022/03/19 05:01:00;;;;;;;124.80;58.92;;;;;;;-0.33;49.88;96943.63;4923954;29;20028;-76
2022/03/19 05:03:28;;;;;;;95.00;44.70;;;;;;;0.10;48.62;96930.22;4908079;29;20464;-76
2022/03/19 05:05:53;;;;;;;81.85;37.63;;;;;;;0.67;47.49;96931.88;4912356;29;20043;-76
2022/03/19 05:08:19;;;;;;;66.80;33.80;;;;;;;1.45;45.06;96936.75;4926626;29;20412;-75
2022/03/19 05:13:28;;;;;;;75.75;35.35;;;;;;;3.20;41.41;96934.03;4937476;29;20570;-76
2022/03/19 05:15:54;;;;;;;64.95;29.77;;;;;;;4.22;38.31;96923.09;4922677;29;20040;-76
2022/03/19 05:18:20;;;;;;;48.33;23.35;;;;;;;5.07;35.75;96928.97;4908553;29;20047;-76
2022/03/19 05:20:45;;;;;;;36.90;20.05;;;;;;;5.70;34.38;96926.31;4923613;29;20050;-76
2022/03/19 05:23:11;;;;;;;49.05;21.88;;;;;;;5.93;33.65;96931.84;4923541;29;20034;-77
2022/03/19 05:25:37;;;;;;;53.55;19.70;;;;;;;6.14;33.12;96934.06;4907882;29;20040;-76
2022/03/19 05:28:03;;;;;;;36.20;19.65;;;;;;;6.19;33.84;96931.84;4939131;29;20039;-76
2022/03/19 05:30:28;;;;;;;28.55;17.60;;;;;;;6.13;32.51;96932.44;4915521;29;20035;-77
2022/03/19 05:32:54;;;;;;;31.77;19.63;;;;;;;6.27;33.07;96934.47;4922730;29;20031;-77
2022/03/19 05:35:21;;;;;;;36.13;18.38;;;;;;;6.45;32.68;96937.81;4907423;29;20040;-77
2022/03/19 05:37:49;;;;;;;41.63;19.92;;;;;;;6.46;31.99;96929.09;4922489;29;20059;-76
2022/03/19 05:40:14;;;;;;;34.92;17.85;;;;;;;6.54;31.40;96925.75;4924103;29;20036;-77
2022/03/19 05:42:40;;;;;;;31.13;17.77;;;;;;;6.57;31.95;96928.81;4923238;29;20043;-77
2022/03/19 05:45:06;;;;;;;35.20;17.83;;;;;;;6.56;31.76;96934.97;4922245;29;20412;-77
2022/03/19 05:47:31;;;;;;;30.48;15.55;;;;;;;6.43;31.25;96928.59;4921470;29;20055;-76
2022/03/19 05:49:57;;;;;;;34.95;13.73;;;;;;;6.21;30.44;96935.91;4922995;29;20063;-76
2022/03/19 05:52:22;;;;;;;27.17;13.10;;;;;;;6.34;31.17;96938.06;4924152;29;20028;-77
2022/03/19 05:54:48;;;;;;;21.52;12.10;;;;;;;6.35;30.58;96929.38;4923085;29;20445;-77
2022/03/19 05:57:13;;;;;;;25.77;12.50;;;;;;;6.22;30.43;96936.72;4924412;29;20087;-77
2022/03/19 05:59:39;;;;;;;28.05;13.93;;;;;;;6.18;31.13;96946.56;4922992;29;20036;-77
2022/03/19 06:02:06;;;;;;;25.40;14.20;;;;;;;6.15;31.09;96941.66;4923870;29;20032;-77
2022/03/19 06:04:35;;;;;;;27.65;13.23;;;;;;;6.27;31.29;96935.28;4907066;29;20036;-77
2022/03/19 06:07:01;;;;;;;23.65;13.45;;;;;;;6.24;30.99;96945.94;4938374;29;20492;-77
2022/03/19 06:09:26;;;;;;;27.90;14.60;;;;;;;6.28;30.80;96947.25;4922543;29;20067;-77
2022/03/19 06:11:52;;;;;;;27.55;15.13;;;;;;;6.46;30.95;96939.41;4922587;29;20038;-77
2022/03/19 06:14:17;;;;;;;28.65;16.23;;;;;;;6.53;30.76;96945.63;4907226;29;20047;-77
2022/03/19 06:16:43;;;;;;;27.02;15.63;;;;;;;6.63;30.87;96935.16;4922748;29;20083;-77
2022/03/19 06:19:08;;;;;;;32.92;16.35;;;;;;;6.85;30.85;96938.97;4905011;29;20044;-77
2022/03/19 06:21:34;;;;;;;34.38;17.55;;;;;;;7.00;30.78;96940.00;4922577;29;20032;-77
2022/03/19 06:23:59;;;;;;;30.13;17.20;;;;;;;7.07;30.04;96937.56;4922194;29;20040;-77
2022/03/19 06:26:25;;;;;;;36.78;18.80;;;;;;;7.05;30.40;96940.31;4923535;29;20039;-76
2022/03/19 06:28:51;;;;;;;30.60;18.35;;;;;;;7.13;30.33;96942.91;4907167;29;20107;-77
2022/03/19 06:31:16;;;;;;;36.88;19.60;;;;;;;7.32;30.50;96935.84;4925078;29;20495;-78
2022/03/19 06:33:42;;;;;;;37.78;17.88;;;;;;;7.52;29.64;96939.78;4915499;29;20055;-76
2022/03/19 06:38:52;;;;;;;32.22;17.25;;;;;;;7.67;29.15;96945.94;4909614;29;20058;-77
2022/03/19 06:41:18;;;;;;;32.28;18.75;;;;;;;7.74;29.54;96940.91;4940110;28;20036;-77
2022/03/19 06:43:43;;;;;;;29.85;17.60;;;;;;;7.77;29.52;96946.56;4907988;29;20067;-77
2022/03/19 06:46:09;;;;;;;31.85;17.95;;;;;;;7.90;29.68;96940.09;4923595;29;20042;-77
2022/03/19 06:48:35;;;;;;;34.20;17.42;;;;;;;7.85;29.33;96948.38;4906378;29;20075;-77
2022/03/19 06:51:00;;;;;;;32.92;18.42;;;;;;;7.99;29.18;96945.13;4923510;29;20496;-76
2022/03/19 06:53:26;;;;;;;35.58;18.33;;;;;;;8.19;29.24;96945.59;4923673;29;20043;-76
2022/03/19 06:55:51;;;;;;;40.83;19.83;;;;;;;8.25;28.99;96939.72;4938322;29;20497;-76
2022/03/19 06:58:17;;;;;;;32.47;16.48;;;;;;;8.23;28.31;96936.50;4936932;29;20408;-76
2022/03/19 07:00:43;;;;;;;29.27;18.40;;;;;;;8.41;28.54;96931.94;4923276;29;20655;-77
2022/03/19 07:03:08;;;;;;;29.90;17.63;;;;;;;8.48;28.27;96928.72;4921796;29;20024;-77
2022/03/19 07:05:34;;;;;;;30.60;18.83;;;;;;;8.42;28.26;96935.34;4913932;29;20050;-76
2022/03/19 07:08:00;;;;;;;36.65;19.15;;;;;;;8.37;27.94;96925.50;4906772;29;20460;-76
2022/03/19 07:10:26;;;;;;;32.45;18.40;;;;;;;8.14;28.77;96927.13;4922460;29;20058;-76
2022/03/19 07:12:56;;;;;;;35.35;20.73;;;;;;;8.34;28.87;96930.19;4921435;29;20044;-76
2022/03/19 07:15:27;;;;;;;50.83;26.88;;;;;;;8.50;28.58;96921.56;4937853;29;20038;-77
2022/03/19 07:17:53;;;;;;;52.20;30.05;;;;;;;8.68;29.32;96922.16;4907186;29;20538;-77
2022/03/19 07:20:19;;;;;;;42.20;26.50;;;;;;;8.77;28.00;96928.09;4922624;29;20404;-77
2022/03/19 07:23:04;;;;;;;58.30;31.20;;;;;;;8.91;26.95;96914.44;4922493;29;20048;-76
2022/03/19 07:25:34;;;;;;;69.60;33.58;;;;;;;8.88;26.70;96913.00;4923717;29;20032;-77
2022/03/19 07:28:01;;;;;;;64.97;31.67;;;;;;;8.87;27.12;96919.16;4937382;29;20028;-80
2022/03/19 07:30:27;;;;;;;55.25;30.83;;;;;;;8.97;27.68;96924.97;4921666;29;20042;-77
2022/03/19 07:32:52;;;;;;;48.13;25.17;;;;;;;9.15;27.23;96918.69;4921011;29;20048;-77
2022/03/19 07:35:18;;;;;;;46.40;21.80;;;;;;;9.21;26.81;96918.00;4905928;29;20036;-76
2022/03/19 07:37:43;;;;;;;33.95;17.10;;;;;;;9.32;25.67;96920.22;4923055;29;20046;-76
2022/03/19 07:40:10;;;;;;;31.90;16.40;;;;;;;9.33;25.01;96922.63;4920713;29;20122;-76
2022/03/19 07:42:36;;;;;;;26.13;16.13;;;;;;;9.33;25.22;96919.25;4937044;29;20039;-77
2022/03/19 07:45:02;;;;;;;27.08;16.23;;;;;;;9.28;25.41;96913.75;4922067;29;20464;-77
2022/03/19 07:47:29;;;;;;;27.30;15.68;;;;;;;9.38;25.85;96918.72;4920993;29;20105;-77
2022/03/19 07:49:54;;;;;;;30.98;14.93;;;;;;;9.35;26.09;96917.28;4922493;29;20046;-79
2022/03/19 07:52:20;;;;;;;26.88;15.90;;;;;;;9.43;25.73;96914.59;4922343;29;20048;-79
2022/03/19 07:54:45;;;;;;;33.13;15.18;;;;;;;9.50;25.26;96917.34;4924210;29;20031;-78
2022/03/19 07:57:11;;;;;;;25.98;13.82;;;;;;;9.58;25.29;96912.88;4935709;29;20050;-78
2022/03/19 07:59:37;;;;;;;25.88;15.10;;;;;;;9.66;24.63;96916.41;4937975;29;20039;-79
2022/03/19 08:02:04;;;;;;;23.70;14.27;;;;;;;9.73;25.01;96917.31;4935630;29;20110;-80
2022/03/19 08:04:29;;;;;;;29.50;14.00;;;;;;;9.80;25.41;96913.06;4927336;29;20040;-79
2022/03/19 08:06:55;;;;;;;29.35;15.07;;;;;;;9.76;24.38;96911.78;4909185;29;20094;-79
2022/03/19 08:09:21;;;;;;;22.23;13.98;;;;;;;9.74;24.52;96911.13;4908773;29;20056;-79
2022/03/19 08:11:47;;;;;;;27.63;15.13;;;;;;;9.73;24.36;96912.13;4938326;29;20039;-77
2022/03/19 08:14:14;;;;;;;24.15;12.93;;;;;;;9.80;24.23;96910.47;4928392;29;20044;-77
2022/03/19 08:16:40;;;;;;;28.67;13.85;;;;;;;9.81;23.96;96912.88;4941296;29;20036;-77
2022/03/19 08:19:05;;;;;;;23.55;12.88;;;;;;;9.80;24.62;96910.47;4925348;29;20084;-77
2022/03/19 08:21:31;;;;;;;22.45;13.63;;;;;;;9.94;23.63;96899.28;4924091;29;20039;-77
2022/03/19 08:23:57;;;;;;;20.48;12.82;;;;;;;9.84;23.47;96909.94;4925701;29;20072;-77
2022/03/19 08:26:22;;;;;;;18.30;12.73;;;;;;;9.63;23.13;96913.19;4923655;29;20208;-77
2022/03/19 08:28:47;;;;;;;16.15;11.40;;;;;;;9.41;23.32;96908.78;4925233;29;20040;-77
2022/03/19 08:31:13;;;;;;;18.77;11.52;;;;;;;8.84;23.29;96909.13;4939860;29;20761;-78
2022/03/19 08:33:38;;;;;;;16.58;10.27;;;;;;;8.48;23.79;96902.78;4909836;29;20141;-77
2022/03/19 08:36:04;;;;;;;14.30;10.70;;;;;;;8.11;24.08;96897.16;4893950;29;20036;-79
2022/03/19 08:41:13;;;;;;;18.75;11.00;;;;;;;7.74;24.52;96894.28;4925184;29;20082;-79
2022/03/19 08:43:39;;;;;;;18.58;11.73;;;;;;;7.09;25.63;96897.63;4924828;29;20040;-78
2022/03/19 08:46:05;;;;;;;18.90;12.43;;;;;;;7.03;25.86;96908.63;4892857;29;20040;-78
2022/03/19 08:48:31;;;;;;;20.52;11.88;;;;;;;6.76;26.38;96898.53;4926606;29;20899;-78
2022/03/19 08:51:39;;;;;;;26.20;14.40;;;;;;;6.61;26.97;96893.94;4910073;29;20046;-77
2022/03/19 08:53:42;;;;;;;30.20;16.75;;;;;;;6.25;26.76;96897.66;4924317;29;20043;-77
2022/03/19 08:56:07;;;;;;;28.15;13.48;;;;;;;5.66;28.41;96886.25;4923295;29;20097;-77
2022/03/19 08:58:33;;;;;;;20.17;12.25;;;;;;;5.41;27.96;96891.25;4892567;29;20032;-77
2022/03/19 09:00:59;;;;;;;17.70;11.68;;;;;;;5.48;27.77;96895.78;4939584;29;20042;-77
2022/03/19 09:03:26;;;;;;;18.02;11.65;;;;;;;5.49;27.93;96887.09;4925569;29;20046;-77
2022/03/19 09:05:52;;;;;;;16.00;10.95;;;;;;;5.31;28.45;96877.59;4923988;29;20086;-78
2022/03/19 09:08:17;;;;;;;15.95;10.98;;;;;;;5.19;28.29;96885.69;4921942;29;20036;-77
2022/03/19 09:10:42;;;;;;;24.50;12.63;;;;;;;5.26;28.34;96879.00;4907249;29;20039;-78
2022/03/19 09:13:08;;;;;;;17.77;10.52;;;;;;;5.18;28.09;96879.72;4923714;29;20116;-77
2022/03/19 09:15:33;;;;;;;15.85;10.73;;;;;;;5.32;27.70;96881.78;4907466;29;20044;-77
2022/03/19 09:17:59;;;;;;;19.30;11.95;;;;;;;5.31;28.14;96890.50;4907910;29;20039;-78
2022/03/19 09:20:24;;;;;;;14.10;11.35;;;;;;;5.48;28.00;96872.56;4924612;29;20036;-78
2022/03/19 09:22:50;;;;;;;21.20;11.52;;;;;;;5.38;28.10;96888.97;4924042;29;20535;-78
2022/03/19 09:25:15;;;;;;;17.55;11.95;;;;;;;5.23;28.98;96893.00;4936055;29;20035;-78
2022/03/19 09:27:41;;;;;;;20.38;10.95;;;;;;;5.21;28.74;96882.03;4917832;29;20040;-78
2022/03/19 09:30:08;;;;;;;18.00;11.40;;;;;;;5.50;28.67;96880.97;4941368;29;20506;-78
2022/03/19 09:32:35;;;;;;;22.15;10.73;;;;;;;5.78;28.21;96882.47;4924499;29;20044;-78
2022/03/19 09:35:01;;;;;;;20.25;11.15;;;;;;;6.00;28.11;96866.50;4924780;29;20492;-77
2022/03/19 09:37:26;;;;;;;27.15;16.00;;;;;;;6.09;28.64;96872.53;4930842;29;20039;-78
2022/03/19 09:39:52;;;;;;;19.05;12.30;;;;;;;6.14;28.47;96872.06;4946346;29;20055;-78
2022/03/19 09:42:18;;;;;;;18.20;10.82;;;;;;;5.67;27.57;96874.97;4916927;29;20056;-78
2022/03/19 09:44:43;;;;;;;17.95;11.10;;;;;;;5.09;28.15;96881.44;4928798;29;20502;-78
2022/03/19 09:47:09;;;;;;;14.88;10.52;;;;;;;4.76;28.83;96877.72;4926419;29;20036;-77
2022/03/19 09:49:35;;;;;;;16.40;10.95;;;;;;;4.53;28.35;96873.91;4910240;29;20040;-77
2022/03/19 09:52:02;;;;;;;13.65;10.18;;;;;;;4.67;28.67;96857.16;4927180;29;20035;-77
2022/03/19 09:54:27;;;;;;;12.25;8.82;;;;;;;4.44;29.00;96874.78;4907501;29;20066;-78
2022/03/19 09:56:53;;;;;;;38.95;20.52;;;;;;;4.03;30.82;96883.72;4922966;29;20066;-77
2022/03/19 09:59:19;;;;;;;14.98;10.85;;;;;;;3.87;30.81;96894.59;4939285;28;20079;-77
2022/03/19 10:01:48;;;;;;;19.17;9.88;;;;;;;3.64;30.71;96876.09;4923984;29;20040;-77
2022/03/19 10:04:17;;;;;;;26.42;10.68;;;;;;;3.70;30.23;96880.69;4923482;29;20119;-77
2022/03/19 10:09:43;;;;;;;15.85;9.15;;;;;;;3.96;29.70;96868.03;4923692;29;20039;-77
2022/03/19 10:12:14;;;;;;;13.63;8.75;;;;;;;3.66;30.26;96874.19;4922963;29;20257;-77
2022/03/19 10:14:39;;;;;;;12.02;9.20;;;;;;;3.63;30.49;96878.81;4898783;29;20039;-77
2022/03/19 10:17:05;;;;;;;19.45;10.60;;;;;;;3.60;31.03;96909.00;4923505;29;20127;-77
2022/03/19 10:19:30;;;;;;;13.05;10.30;;;;;;;3.49;31.66;96873.13;4924074;29;20040;-77
2022/03/19 10:22:06;;;;;;;15.07;10.20;;;;;;;3.57;31.83;96865.53;4914250;29;20055;-77
2022/03/19 10:24:35;;;;;;;16.73;10.20;;;;;;;3.48;31.63;96865.56;4941330;29;20123;-78
2022/03/19 10:27:00;;;;;;;20.30;10.73;;;;;;;3.44;32.12;96870.19;4907716;29;20055;-78
2022/03/19 10:29:33;;;;;;;15.88;11.20;;;;;;;3.54;32.35;96876.09;4939175;29;20091;-78
2022/03/19 10:32:01;;;;;;;19.00;9.45;;;;;;;3.79;31.38;96853.31;4923739;29;20036;-78
2022/03/19 10:34:28;;;;;;;15.30;10.60;;;;;;;3.83;31.56;96857.22;4908109;29;20036;-78
2022/03/19 10:36:53;;;;;;;16.30;9.90;;;;;;;3.90;31.05;96855.72;4922661;29;20127;-78
2022/03/19 10:39:25;;;;;;;15.68;10.98;;;;;;;3.97;31.13;96855.97;4924343;29;20099;-77
2022/03/19 10:41:50;;;;;;;18.20;10.10;;;;;;;4.07;31.18;96852.44;4921618;29;20034;-78
2022/03/19 10:44:17;;;;;;;18.60;10.50;;;;;;;4.30;31.14;96854.63;4923851;29;20043;-76
2022/03/19 10:46:50;;;;;;;16.55;10.00;;;;;;;4.31;31.05;96869.13;4907607;29;20032;-77
2022/03/19 10:49:16;;;;;;;15.25;9.75;;;;;;;4.15;30.66;96870.53;4924309;29;20038;-76
2022/03/19 10:51:45;;;;;;;14.13;8.93;;;;;;;3.89;30.98;96851.53;4907785;29;20036;-77
2022/03/19 10:54:11;;;;;;;18.05;9.90;;;;;;;4.25;31.25;96849.09;4930787;29;20042;-76
2022/03/19 10:56:37;;;;;;;18.98;8.70;;;;;;;4.51;30.44;96845.72;4927681;29;20091;-76
2022/03/19 10:59:03;;;;;;;12.75;9.00;;;;;;;4.17;30.10;96845.47;4921868;29;20126;-76
2022/03/19 11:01:29;;;;;;;13.18;8.90;;;;;;;4.03;30.81;96868.28;4921717;29;20059;-77
2022/03/19 11:03:54;;;;;;;20.40;10.27;;;;;;;4.03;30.69;96835.63;4891119;29;20050;-76
2022/03/19 11:06:19;;;;;;;15.75;7.95;;;;;;;4.17;30.36;96839.50;4922756;29;20044;-77
2022/03/19 11:08:46;;;;;;;11.10;7.80;;;;;;;4.43;30.75;96843.06;4921978;29;20704;-77
2022/03/19 11:11:41;;;;;;;14.30;8.32;;;;;;;4.31;31.07;96835.66;4909628;29;20048;-76
2022/03/19 11:14:07;;;;;;;13.80;9.30;;;;;;;4.52;30.38;96843.94;4920497;29;20055;-76
2022/03/19 11:16:35;;;;;;;22.52;13.80;;;;;;;4.51;30.84;96843.13;4923203;29;20054;-77
2022/03/19 11:19:02;;;;;;;20.05;12.38;;;;;;;4.55;30.63;96848.00;4921683;29;20058;-77
2022/03/19 11:21:31;;;;;;;12.90;8.52;;;;;;;4.85;30.39;96834.78;4921425;29;20036;-77
2022/03/19 11:24:13;;;;;;;11.77;8.27;;;;;;;5.05;30.20;96830.31;4906205;29;20090;-77
2022/03/19 11:26:39;;;;;;;20.27;8.57;;;;;;;5.08;29.78;96848.06;4921007;29;20686;-77
2022/03/19 11:29:05;;;;;;;13.90;8.95;;;;;;;4.60;30.90;96836.31;4921493;29;20036;-77